Time;durP1;ratioP1;P1;durP2;ratioP2;P2;SDS_P1;SDS_P2;PMS_P1;PMS_P2;Temp;Humidity;BMP_temperature;BMP_pressure;BME280_temperature;BME280_humidity;BME280_pressure;Samples;Min_cycle;Max_cycle;Signal;HPM_P1;HPM_P2
2023/12/26 00:01:48;;;;;;;1.80;1.60;;;9.10;99.90;;;;;;4932818;29;20184;-62
2023/12/26 00:04:15;;;;;;;2.63;2.40;;;9.00;99.90;;;;;;4920140;29;20455;-62
2023/12/26 00:06:43;;;;;;;3.87;1.53;;;9.00;99.90;;;;;;4930335;29;20814;-62
2023/12/26 00:09:13;;;;;;;2.77;1.50;;;9.00;99.90;;;;;;4921862;29;20501;-62
2023/12/26 00:11:43;;;;;;;3.83;3.03;;;9.00;99.90;;;;;;4933022;29;20462;-62
2023/12/26 00:14:09;;;;;;;3.10;1.53;;;9.00;99.90;;;;;;4926444;29;20416;-62
2023/12/26 00:16:34;;;;;;;1.53;1.43;;;9.00;99.90;;;;;;4925246;29;20416;-62
2023/12/26 00:19:00;;;;;;;2.23;1.77;;;9.00;99.90;;;;;;4923774;29;20419;-62
2023/12/26 00:21:26;;;;;;;8.13;1.67;;;9.00;99.90;;;;;;4929192;29;20193;-62
2023/12/26 00:23:51;;;;;;;2.10;1.90;;;9.00;99.90;;;;;;4932300;29;20187;-62
2023/12/26 00:26:17;;;;;;;2.30;1.77;;;9.00;99.90;;;;;;4928611;29;20206;-62
2023/12/26 00:28:43;;;;;;;1.50;1.40;;;9.00;99.90;;;;;;4932373;29;20270;-62
2023/12/26 00:31:08;;;;;;;2.70;1.80;;;9.00;99.90;;;;;;4922144;29;20189;-62
2023/12/26 00:33:34;;;;;;;1.83;1.40;;;9.00;99.90;;;;;;4929355;29;20175;-62
2023/12/26 00:36:00;;;;;;;1.53;1.43;;;9.00;99.90;;;;;;4926082;29;20195;-61
2023/12/26 00:38:26;;;;;;;3.17;2.50;;;9.00;99.90;;;;;;4931160;29;20174;-62
2023/12/26 00:40:51;;;;;;;3.70;1.40;;;9.00;99.90;;;;;;4923550;29;20241;-62
2023/12/26 00:43:17;;;;;;;3.57;2.00;;;9.00;99.90;;;;;;4920041;29;20416;-62
2023/12/26 00:45:43;;;;;;;2.20;1.67;;;9.00;99.90;;;;;;4933513;29;20230;-62
2023/12/26 00:48:08;;;;;;;2.63;1.70;;;9.00;99.90;;;;;;4928553;29;20185;-62
2023/12/26 00:50:41;;;;;;;2.30;1.57;;;9.00;99.90;;;;;;4932796;29;20199;-62
2023/12/26 00:53:10;;;;;;;1.60;1.50;;;9.00;99.90;;;;;;4925027;29;20206;-62
2023/12/26 00:55:36;;;;;;;3.37;2.30;;;9.00;99.90;;;;;;4932349;29;20868;-62
2023/12/26 00:58:01;;;;;;;1.93;1.60;;;9.00;99.90;;;;;;4928522;29;20478;-62
2023/12/26 01:00:27;;;;;;;1.90;1.80;;;9.00;99.90;;;;;;4914101;29;20405;-61
2023/12/26 01:02:53;;;;;;;4.10;1.67;;;9.00;99.90;;;;;;4931150;29;20176;-62
2023/12/26 01:05:18;;;;;;;3.13;2.40;;;9.00;99.90;;;;;;4933993;29;20273;-62
2023/12/26 01:07:44;;;;;;;2.90;1.60;;;9.00;99.90;;;;;;4934145;29;20185;-62
2023/12/26 01:10:10;;;;;;;2.60;1.57;;;9.00;99.90;;;;;;4929975;29;20700;-62
2023/12/26 01:12:35;;;;;;;5.47;1.50;;;9.00;99.90;;;;;;4921829;29;20168;-62
2023/12/26 01:15:01;;;;;;;3.40;1.80;;;9.00;99.90;;;;;;4921043;29;20199;-62
2023/12/26 01:17:27;;;;;;;10.50;1.70;;;9.00;99.90;;;;;;4930628;29;20179;-61
2023/12/26 01:19:52;;;;;;;2.57;1.30;;;9.00;99.90;;;;;;4928903;29;20171;-62
2023/12/26 01:22:18;;;;;;;2.30;1.47;;;9.00;99.90;;;;;;4934200;29;20205;-62
2023/12/26 01:24:44;;;;;;;3.40;2.10;;;9.00;99.90;;;;;;4934301;29;20201;-62
2023/12/26 01:27:09;;;;;;;2.37;1.77;;;9.00;99.90;;;;;;4934167;29;20182;-62
2023/12/26 01:29:35;;;;;;;2.20;1.53;;;9.00;99.90;;;;;;4922030;29;20637;-62
2023/12/26 01:32:01;;;;;;;2.40;1.53;;;9.00;99.90;;;;;;4920824;29;20265;-62
2023/12/26 01:34:26;;;;;;;1.50;1.40;;;9.00;99.90;;;;;;4925122;29;20572;-62
2023/12/26 01:36:52;;;;;;;1.67;1.27;;;9.00;99.90;;;;;;4927923;29;20181;-62
2023/12/26 01:39:18;;;;;;;2.13;1.60;;;9.10;99.90;;;;;;4929071;29;20182;-62
2023/12/26 01:41:43;;;;;;;10.33;2.07;;;9.00;99.90;;;;;;4926329;29;20210;-62
2023/12/26 01:44:09;;;;;;;2.60;1.50;;;9.00;99.90;;;;;;4916685;29;20650;-62
2023/12/26 01:46:35;;;;;;;2.27;1.80;;;9.10;99.90;;;;;;4929005;29;20354;-61
2023/12/26 01:49:01;;;;;;;2.70;1.70;;;9.10;99.90;;;;;;4927057;29;20731;-62
2023/12/26 01:51:29;;;;;;;4.60;2.13;;;9.10;99.90;;;;;;4926663;29;20963;-62
2023/12/26 01:53:55;;;;;;;2.87;1.63;;;9.10;99.90;;;;;;4916763;29;20410;-62
2023/12/26 01:56:22;;;;;;;1.50;1.40;;;9.10;99.90;;;;;;4922521;29;20517;-61
2023/12/26 01:58:49;;;;;;;2.07;1.20;;;9.10;99.90;;;;;;4906809;29;20762;-62
2023/12/26 02:01:15;;;;;;;1.17;1.03;;;9.10;99.90;;;;;;4918227;29;20431;-62
2023/12/26 02:03:42;;;;;;;1.50;1.20;;;9.10;99.90;;;;;;4912560;29;20515;-62
2023/12/26 02:06:09;;;;;;;1.67;1.00;;;9.10;99.90;;;;;;4933548;29;20439;-61
2023/12/26 02:08:36;;;;;;;2.50;1.13;;;9.10;99.90;;;;;;4921093;29;20591;-62
2023/12/26 02:11:02;;;;;;;1.23;1.10;;;9.10;99.90;;;;;;4916868;29;21004;-61
2023/12/26 02:13:29;;;;;;;1.50;1.30;;;9.20;99.90;;;;;;4932813;29;20419;-61
2023/12/26 02:15:58;;;;;;;2.50;1.70;;;9.20;99.90;;;;;;4931911;29;20454;-61
2023/12/26 02:18:24;;;;;;;2.20;1.67;;;9.20;99.90;;;;;;4907103;29;20526;-62
2023/12/26 02:20:50;;;;;;;1.67;1.20;;;9.20;99.90;;;;;;4906675;29;20523;-61
2023/12/26 02:23:16;;;;;;;1.20;0.83;;;9.30;99.90;;;;;;4902236;29;20453;-61
2023/12/26 02:25:41;;;;;;;1.40;1.20;;;9.30;99.90;;;;;;4905202;29;20211;-62
2023/12/26 02:28:08;;;;;;;1.20;1.10;;;9.30;99.90;;;;;;4906715;29;20215;-62
2023/12/26 02:30:35;;;;;;;1.00;0.87;;;9.30;99.90;;;;;;4906610;29;20197;-62
2023/12/26 02:33:02;;;;;;;0.70;0.70;;;9.30;99.90;;;;;;4907965;29;20484;-62
2023/12/26 02:35:28;;;;;;;0.80;0.80;;;9.40;99.90;;;;;;4917731;29;20725;-62
2023/12/26 02:37:54;;;;;;;0.93;0.80;;;9.40;99.90;;;;;;4935576;29;20446;-62
2023/12/26 02:40:20;;;;;;;0.70;0.70;;;9.40;99.90;;;;;;4925741;29;20508;-61
2023/12/26 02:42:46;;;;;;;0.80;0.70;;;9.40;99.90;;;;;;4932864;29;20496;-61
2023/12/26 02:45:12;;;;;;;0.80;0.80;;;9.40;99.90;;;;;;4929113;29;20685;-62
2023/12/26 02:47:38;;;;;;;0.60;0.60;;;9.40;99.90;;;;;;4930434;29;20177;-61
2023/12/26 02:50:06;;;;;;;0.73;0.70;;;9.50;99.90;;;;;;4922537;29;20415;-61
2023/12/26 02:52:31;;;;;;;1.27;0.90;;;9.40;99.90;;;;;;4932584;29;20175;-61
2023/12/26 02:54:57;;;;;;;1.00;0.63;;;9.50;99.90;;;;;;4928807;29;20454;-61
2023/12/26 02:57:23;;;;;;;0.80;0.70;;;9.50;99.90;;;;;;4930095;29;20182;-62
2023/12/26 02:59:48;;;;;;;0.80;0.70;;;9.50;99.90;;;;;;4919319;29;20246;-60
2023/12/26 03:02:14;;;;;;;0.60;0.60;;;9.50;99.90;;;;;;4919822;29;20181;-61
2023/12/26 03:04:40;;;;;;;0.80;0.80;;;9.50;99.90;;;;;;4920764;29;20256;-60
2023/12/26 03:07:06;;;;;;;0.80;0.80;;;9.50;99.90;;;;;;4928403;29;20272;-61
2023/12/26 03:09:31;;;;;;;0.70;0.70;;;9.50;99.90;;;;;;4924653;29;20180;-60
2023/12/26 03:11:57;;;;;;;0.83;0.70;;;9.60;99.90;;;;;;4932394;29;20570;-61
2023/12/26 03:14:23;;;;;;;0.70;0.70;;;9.60;99.90;;;;;;4925092;29;20172;-61
2023/12/26 03:16:49;;;;;;;1.13;0.60;;;9.60;99.90;;;;;;4930204;29;20669;-61
2023/12/26 03:19:15;;;;;;;0.77;0.77;;;9.60;99.90;;;;;;4925887;29;20511;-62
2023/12/26 03:21:40;;;;;;;2.40;0.70;;;9.60;99.90;;;;;;4917503;29;20461;-61
2023/12/26 03:24:06;;;;;;;0.70;0.70;;;9.50;99.90;;;;;;4925475;29;20222;-61
2023/12/26 03:26:32;;;;;;;0.60;0.60;;;9.50;99.90;;;;;;4931508;29;20175;-61
2023/12/26 03:28:58;;;;;;;0.60;0.60;;;9.50;99.90;;;;;;4931959;29;20449;-60
2023/12/26 03:31:24;;;;;;;0.60;0.60;;;9.50;99.90;;;;;;4916951;29;20464;-61
2023/12/26 03:33:50;;;;;;;0.60;0.57;;;9.40;99.90;;;;;;4930494;29;20520;-61
2023/12/26 03:36:15;;;;;;;0.90;0.60;;;9.40;99.90;;;;;;4931034;29;20450;-61
2023/12/26 03:38:43;;;;;;;3.13;0.60;;;9.40;99.90;;;;;;4935387;29;20183;-61
2023/12/26 03:41:09;;;;;;;0.77;0.67;;;9.40;99.90;;;;;;4919118;29;20313;-61
2023/12/26 03:43:35;;;;;;;0.60;0.60;;;9.40;99.90;;;;;;4929153;29;20418;-62
2023/12/26 03:46:02;;;;;;;0.70;0.60;;;9.40;99.90;;;;;;4911536;29;20459;-62
2023/12/26 03:48:28;;;;;;;0.67;0.60;;;9.30;99.90;;;;;;4922769;29;20182;-61
2023/12/26 03:50:54;;;;;;;0.80;0.70;;;9.40;99.90;;;;;;4921680;29;20792;-62
2023/12/26 03:53:20;;;;;;;0.60;0.60;;;9.40;99.90;;;;;;4922691;29;20478;-62
2023/12/26 03:55:46;;;;;;;0.70;0.67;;;9.40;99.90;;;;;;4929754;29;20465;-61
2023/12/26 03:58:12;;;;;;;0.70;0.70;;;9.30;99.90;;;;;;4929254;29;20262;-61
2023/12/26 04:00:38;;;;;;;0.70;0.70;;;9.40;99.90;;;;;;4914282;29;20449;-61
2023/12/26 04:03:04;;;;;;;0.60;0.60;;;9.40;99.90;;;;;;4919335;29;20450;-61
2023/12/26 04:05:30;;;;;;;0.63;0.63;;;9.30;99.90;;;;;;4922450;29;20206;-61
2023/12/26 04:07:55;;;;;;;0.50;0.50;;;9.30;99.90;;;;;;4919833;29;20471;-62
2023/12/26 04:10:21;;;;;;;1.23;0.80;;;9.30;99.90;;;;;;4933115;29;20198;-62
2023/12/26 04:12:47;;;;;;;1.43;0.60;;;9.40;99.90;;;;;;4928229;29;20667;-62
2023/12/26 04:15:13;;;;;;;0.70;0.70;;;9.30;99.90;;;;;;4933604;29;20195;-61
2023/12/26 04:17:39;;;;;;;0.63;0.63;;;9.40;99.90;;;;;;4926043;29;20603;-62
2023/12/26 04:20:05;;;;;;;1.10;1.00;;;9.40;99.90;;;;;;4919495;29;20419;-61
2023/12/26 04:22:31;;;;;;;1.20;0.93;;;9.30;99.90;;;;;;4924841;29;20266;-62
2023/12/26 04:24:56;;;;;;;1.03;0.83;;;9.30;99.90;;;;;;4919182;29;20485;-61
2023/12/26 04:27:22;;;;;;;1.17;0.73;;;9.30;99.90;;;;;;4930087;29;20174;-62
2023/12/26 04:29:48;;;;;;;2.77;0.70;;;9.40;99.90;;;;;;4929755;29;20634;-62
2023/12/26 04:32:14;;;;;;;0.57;0.57;;;9.40;99.90;;;;;;4928395;29;20566;-61
2023/12/26 04:34:39;;;;;;;1.37;0.70;;;9.40;99.90;;;;;;4922175;29;20191;-61
2023/12/26 04:37:05;;;;;;;0.93;0.90;;;9.40;99.90;;;;;;4912067;29;20163;-62
2023/12/26 04:39:31;;;;;;;0.50;0.50;;;9.40;99.90;;;;;;4934492;29;20183;-61
2023/12/26 04:41:57;;;;;;;1.00;0.80;;;9.40;99.90;;;;;;4919407;29;20179;-61
2023/12/26 04:44:24;;;;;;;0.70;0.70;;;9.40;99.90;;;;;;4932934;29;20845;-61
2023/12/26 04:46:51;;;;;;;1.00;0.60;;;9.40;99.90;;;;;;4926480;29;20552;-61
2023/12/26 04:49:17;;;;;;;0.70;0.60;;;9.40;99.90;;;;;;4933560;29;20419;-62
2023/12/26 04:51:42;;;;;;;0.60;0.60;;;9.40;99.90;;;;;;4921264;29;20471;-62
2023/12/26 04:54:08;;;;;;;1.40;0.70;;;9.40;99.90;;;;;;4927568;29;20195;-62
2023/12/26 04:56:36;;;;;;;0.70;0.70;;;9.40;99.90;;;;;;4925443;29;20194;-62
2023/12/26 04:59:03;;;;;;;0.60;0.60;;;9.40;99.90;;;;;;4920066;29;20207;-61
2023/12/26 05:01:28;;;;;;;0.70;0.70;;;9.40;99.90;;;;;;4928084;29;20427;-62
2023/12/26 05:03:54;;;;;;;0.90;0.80;;;9.40;99.90;;;;;;4928043;29;20840;-61
2023/12/26 05:06:20;;;;;;;1.00;0.83;;;9.40;99.90;;;;;;4929431;29;20239;-61
2023/12/26 05:08:46;;;;;;;3.00;0.70;;;9.40;99.90;;;;;;4922883;29;20587;-61
2023/12/26 05:11:23;;;;;;;1.00;0.70;;;9.40;99.90;;;;;;4927368;29;20566;-61
2023/12/26 05:13:50;;;;;;;0.77;0.77;;;9.40;99.90;;;;;;4931742;29;20179;-63
2023/12/26 05:16:16;;;;;;;0.90;0.70;;;9.40;99.90;;;;;;4927968;29;20466;-61
2023/12/26 05:18:42;;;;;;;0.80;0.70;;;9.40;99.90;;;;;;4930835;29;20415;-61
2023/12/26 05:21:20;;;;;;;0.97;0.97;;;9.40;99.90;;;;;;4929222;29;20410;-60
2023/12/26 05:23:46;;;;;;;0.60;0.60;;;9.40;99.90;;;;;;4921020;29;20180;-61
2023/12/26 05:26:12;;;;;;;0.80;0.70;;;9.40;99.90;;;;;;4918807;29;20465;-61
2023/12/26 05:28:38;;;;;;;0.60;0.60;;;9.40;99.90;;;;;;4922248;29;20818;-61
2023/12/26 05:31:04;;;;;;;0.70;0.70;;;9.30;99.90;;;;;;4929677;29;20450;-60
2023/12/26 05:33:30;;;;;;;0.60;0.60;;;9.30;99.90;;;;;;4927768;29;20591;-60
2023/12/26 05:35:56;;;;;;;1.30;0.70;;;9.40;99.90;;;;;;4929221;29;20440;-61
2023/12/26 05:38:22;;;;;;;0.80;0.70;;;9.30;99.90;;;;;;4923164;29;20914;-61
2023/12/26 05:40:47;;;;;;;0.70;0.70;;;9.30;99.90;;;;;;4918375;29;20461;-61
2023/12/26 05:43:13;;;;;;;0.80;0.80;;;9.40;99.90;;;;;;4924870;29;20425;-61
2023/12/26 05:45:39;;;;;;;0.83;0.80;;;9.30;99.90;;;;;;4914567;29;20191;-61
2023/12/26 05:48:07;;;;;;;1.13;1.03;;;9.30;99.90;;;;;;4933226;29;20175;-62
2023/12/26 05:50:33;;;;;;;1.07;0.97;;;9.40;99.90;;;;;;4931387;29;20594;-61
2023/12/26 05:52:58;;;;;;;0.90;0.83;;;9.30;99.90;;;;;;4930477;29;20514;-61
2023/12/26 05:55:24;;;;;;;0.70;0.70;;;9.30;99.90;;;;;;4924574;29;20206;-61
2023/12/26 05:57:50;;;;;;;1.00;0.90;;;9.30;99.90;;;;;;4919095;28;20652;-61
2023/12/26 06:00:16;;;;;;;0.87;0.60;;;9.30;99.90;;;;;;4925510;29;21109;-61
2023/12/26 06:02:42;;;;;;;0.80;0.70;;;9.30;99.90;;;;;;4931172;29;20534;-61
2023/12/26 06:05:08;;;;;;;0.70;0.70;;;9.30;99.90;;;;;;4931267;29;20427;-61
2023/12/26 06:07:34;;;;;;;0.67;0.67;;;9.30;99.90;;;;;;4930737;29;20407;-61
2023/12/26 06:10:00;;;;;;;0.60;0.60;;;9.30;99.90;;;;;;4936061;29;20785;-61
2023/12/26 06:12:28;;;;;;;2.73;0.80;;;9.30;99.90;;;;;;4935629;29;20458;-61
2023/12/26 06:14:53;;;;;;;0.70;0.70;;;9.30;99.90;;;;;;4929096;29;20501;-61
2023/12/26 06:17:21;;;;;;;0.80;0.63;;;9.30;99.90;;;;;;4935878;29;20411;-60
2023/12/26 06:19:47;;;;;;;0.70;0.70;;;9.30;99.90;;;;;;4933391;29;20186;-61
2023/12/26 06:22:13;;;;;;;0.60;0.60;;;9.30;99.90;;;;;;4927230;29;20412;-61
2023/12/26 06:24:39;;;;;;;0.93;0.83;;;9.30;99.90;;;;;;4930576;29;20465;-61
2023/12/26 06:27:05;;;;;;;0.80;0.80;;;9.30;99.90;;;;;;4929360;29;20181;-61
2023/12/26 06:29:30;;;;;;;0.97;0.83;;;9.30;99.90;;;;;;4924013;29;20243;-61
2023/12/26 06:31:57;;;;;;;0.77;0.70;;;9.30;99.90;;;;;;4929032;29;20463;-61
2023/12/26 06:34:23;;;;;;;0.60;0.60;;;9.20;99.90;;;;;;4929680;29;20167;-61
2023/12/26 06:36:49;;;;;;;0.70;0.60;;;9.20;99.90;;;;;;4929088;29;20415;-61
2023/12/26 06:39:15;;;;;;;0.60;0.60;;;9.30;99.90;;;;;;4926541;29;20208;-61
2023/12/26 06:41:41;;;;;;;0.70;0.60;;;9.20;99.90;;;;;;4933456;29;20221;-59
2023/12/26 06:44:07;;;;;;;0.90;0.70;;;9.30;99.90;;;;;;4930524;29;20419;-60
2023/12/26 06:46:34;;;;;;;0.67;0.67;;;9.30;99.90;;;;;;4932037;29;20528;-60
2023/12/26 06:49:00;;;;;;;0.90;0.70;;;9.30;99.90;;;;;;4934061;29;20218;-61
2023/12/26 06:51:25;;;;;;;0.60;0.60;;;9.30;99.90;;;;;;4922840;29;20459;-61
2023/12/26 06:53:51;;;;;;;0.60;0.60;;;9.30;99.90;;;;;;4920093;29;20207;-61
2023/12/26 06:56:17;;;;;;;1.87;0.70;;;9.30;99.90;;;;;;4929184;29;20630;-61
2023/12/26 06:58:43;;;;;;;0.60;0.60;;;9.20;99.90;;;;;;4929888;29;20424;-61
2023/12/26 07:01:13;;;;;;;1.30;1.20;;;9.20;99.90;;;;;;4934590;29;20190;-61
2023/12/26 07:03:38;;;;;;;1.00;0.90;;;9.20;99.90;;;;;;4930863;29;20178;-61
2023/12/26 07:06:04;;;;;;;1.70;1.00;;;9.20;99.90;;;;;;4926869;29;20439;-61
2023/12/26 07:08:30;;;;;;;1.73;0.90;;;9.20;99.90;;;;;;4929774;29;20271;-61
2023/12/26 07:10:56;;;;;;;0.77;0.73;;;9.10;99.90;;;;;;4934067;29;20191;-61
2023/12/26 07:13:21;;;;;;;1.20;0.70;;;9.00;99.90;;;;;;4928196;29;20226;-61
2023/12/26 07:15:47;;;;;;;1.10;0.80;;;9.00;99.90;;;;;;4928921;29;20206;-61
2023/12/26 07:18:13;;;;;;;1.10;0.90;;;9.00;99.90;;;;;;4928078;29;20168;-61
2023/12/26 07:20:39;;;;;;;0.80;0.73;;;9.10;99.90;;;;;;4930952;29;20175;-60
2023/12/26 07:23:04;;;;;;;0.60;0.60;;;9.10;99.90;;;;;;4933680;29;20611;-61
2023/12/26 07:25:31;;;;;;;1.33;0.73;;;9.10;99.90;;;;;;4926206;29;20221;-61
2023/12/26 07:27:57;;;;;;;0.60;0.60;;;9.10;99.90;;;;;;4932224;29;20638;-61
2023/12/26 07:30:23;;;;;;;1.10;0.70;;;9.00;99.90;;;;;;4932141;29;20425;-61
2023/12/26 07:32:48;;;;;;;0.90;0.90;;;9.00;99.90;;;;;;4925444;29;20636;-60
2023/12/26 07:35:14;;;;;;;1.20;0.80;;;9.00;99.90;;;;;;4932835;29;20438;-61
2023/12/26 07:37:40;;;;;;;1.00;0.70;;;9.00;99.90;;;;;;4935522;29;20178;-61
2023/12/26 07:40:06;;;;;;;1.00;0.73;;;9.00;99.90;;;;;;4926865;29;20214;-61
2023/12/26 07:42:31;;;;;;;2.10;0.70;;;8.90;99.90;;;;;;4925360;29;20706;-61
2023/12/26 07:44:57;;;;;;;3.30;0.80;;;8.80;99.90;;;;;;4923400;29;20435;-61
2023/12/26 07:47:23;;;;;;;1.80;0.70;;;8.90;99.90;;;;;;4931194;29;20182;-61
2023/12/26 07:49:48;;;;;;;1.53;1.20;;;8.90;99.90;;;;;;4923630;29;20182;-61
2023/12/26 07:52:14;;;;;;;2.00;0.70;;;8.90;99.90;;;;;;4918154;29;20262;-61
2023/12/26 07:54:40;;;;;;;0.70;0.70;;;9.00;99.90;;;;;;4919982;29;20219;-61
2023/12/26 07:57:05;;;;;;;0.80;0.70;;;8.90;99.90;;;;;;4921374;29;20213;-61
2023/12/26 07:59:31;;;;;;;1.43;0.60;;;8.90;99.90;;;;;;4935341;29;20246;-61
2023/12/26 08:01:57;;;;;;;0.60;0.60;;;8.90;99.90;;;;;;4917357;29;20194;-61
2023/12/26 08:04:22;;;;;;;0.97;0.77;;;9.00;99.90;;;;;;4915986;29;20186;-61
2023/12/26 08:06:48;;;;;;;1.63;0.93;;;9.00;99.90;;;;;;4927163;29;20176;-61
2023/12/26 08:09:14;;;;;;;1.73;1.60;;;9.00;99.90;;;;;;4928128;29;20172;-61
2023/12/26 08:11:40;;;;;;;1.17;0.73;;;9.10;99.90;;;;;;4929907;29;20198;-60
2023/12/26 08:14:05;;;;;;;1.40;0.73;;;9.10;99.90;;;;;;4925196;29;20178;-61
2023/12/26 08:16:31;;;;;;;1.40;1.30;;;9.20;99.90;;;;;;4934722;29;20215;-61
2023/12/26 08:18:58;;;;;;;0.90;0.90;;;9.20;99.90;;;;;;4924052;29;20180;-61
2023/12/26 08:21:24;;;;;;;1.80;0.80;;;9.30;99.90;;;;;;4928521;29;20560;-61
2023/12/26 08:23:50;;;;;;;0.93;0.87;;;9.30;99.90;;;;;;4927198;29;20412;-61
2023/12/26 08:26:15;;;;;;;1.50;1.10;;;9.30;99.90;;;;;;4927021;29;20434;-61
2023/12/26 08:28:41;;;;;;;0.70;0.70;;;9.30;99.90;;;;;;4923479;29;20226;-61
2023/12/26 08:31:07;;;;;;;5.17;1.73;;;9.30;99.90;;;;;;4927141;29;20230;-61
2023/12/26 08:33:35;;;;;;;1.20;1.00;;;9.40;99.90;;;;;;4934875;29;20175;-62
2023/12/26 08:36:01;;;;;;;3.00;1.00;;;9.40;99.90;;;;;;4918501;29;20581;-61
2023/12/26 08:38:28;;;;;;;1.30;0.90;;;9.40;99.90;;;;;;4927581;29;20414;-61
2023/12/26 08:40:54;;;;;;;3.50;1.00;;;9.30;99.90;;;;;;4921694;29;20458;-61
2023/12/26 08:43:20;;;;;;;1.17;1.10;;;9.20;99.90;;;;;;4928325;29;20415;-61
2023/12/26 08:45:45;;;;;;;1.90;1.17;;;9.30;99.90;;;;;;4926080;29;20441;-62
2023/12/26 08:48:11;;;;;;;1.33;1.10;;;9.50;99.90;;;;;;4931798;29;20189;-63
2023/12/26 08:50:37;;;;;;;6.63;1.63;;;9.60;99.90;;;;;;4921292;29;20704;-62
2023/12/26 08:53:03;;;;;;;1.67;0.90;;;9.60;99.90;;;;;;4930955;29;20171;-62
2023/12/26 08:55:28;;;;;;;5.40;0.90;;;9.80;99.90;;;;;;4931293;29;21028;-62
2023/12/26 08:57:54;;;;;;;3.53;1.00;;;9.80;99.90;;;;;;4926237;29;20431;-62
2023/12/26 09:00:20;;;;;;;1.67;0.80;;;9.60;99.90;;;;;;4931821;29;20179;-62
2023/12/26 09:02:46;;;;;;;3.00;1.37;;;9.60;99.90;;;;;;4915936;29;20179;-62
2023/12/26 09:05:12;;;;;;;1.57;1.00;;;9.50;99.90;;;;;;4923977;29;20526;-62
2023/12/26 09:07:38;;;;;;;1.60;1.50;;;9.40;99.90;;;;;;4930434;29;20415;-62
2023/12/26 09:10:06;;;;;;;1.37;1.00;;;9.40;99.90;;;;;;4926878;29;20419;-62
2023/12/26 09:12:32;;;;;;;2.20;0.90;;;9.40;99.90;;;;;;4931800;29;20202;-62
2023/12/26 09:14:57;;;;;;;1.23;1.13;;;9.30;99.90;;;;;;4924312;29;20443;-62
2023/12/26 09:17:23;;;;;;;2.93;1.20;;;9.30;99.90;;;;;;4931749;29;20423;-62
2023/12/26 09:19:49;;;;;;;1.40;0.83;;;9.20;99.90;;;;;;4915084;29;20172;-62
2023/12/26 09:22:15;;;;;;;1.73;1.20;;;9.20;99.90;;;;;;4916471;29;20560;-62
2023/12/26 09:24:44;;;;;;;3.17;1.60;;;9.20;99.90;;;;;;4922490;29;20198;-62
2023/12/26 09:27:11;;;;;;;1.23;1.10;;;9.30;99.90;;;;;;4906600;29;20800;-62
2023/12/26 09:29:36;;;;;;;4.60;1.27;;;9.30;99.90;;;;;;4900436;29;20832;-62
2023/12/26 09:32:02;;;;;;;3.33;1.20;;;9.30;99.90;;;;;;4900017;29;20468;-62
2023/12/26 09:34:28;;;;;;;1.20;1.10;;;9.40;99.90;;;;;;4899934;29;20711;-63
2023/12/26 09:36:54;;;;;;;1.97;1.77;;;9.40;99.90;;;;;;4918077;29;20742;-62
2023/12/26 09:39:19;;;;;;;2.07;1.50;;;9.30;99.90;;;;;;4919340;29;20218;-62
2023/12/26 09:41:52;;;;;;;1.73;1.03;;;9.30;99.90;;;;;;4929028;29;20183;-63
2023/12/26 09:44:19;;;;;;;2.40;1.10;;;9.20;99.90;;;;;;4931369;29;20175;-63
2023/12/26 09:46:45;;;;;;;4.50;1.43;;;9.20;99.90;;;;;;4929843;29;20419;-63
2023/12/26 09:49:10;;;;;;;3.33;1.40;;;9.20;99.90;;;;;;4931179;29;20429;-62
2023/12/26 09:51:40;;;;;;;1.30;1.10;;;9.20;99.90;;;;;;4937437;29;20262;-63
2023/12/26 09:54:08;;;;;;;2.30;1.40;;;9.30;99.90;;;;;;4920451;29;20179;-63
2023/12/26 09:56:37;;;;;;;4.40;0.90;;;9.40;99.90;;;;;;4928485;29;20433;-63
2023/12/26 09:59:04;;;;;;;2.93;1.13;;;9.40;99.90;;;;;;4937072;29;20688;-63
2023/12/26 10:01:29;;;;;;;2.50;1.43;;;9.50;99.90;;;;;;4935632;29;20419;-62
2023/12/26 10:03:56;;;;;;;4.83;1.53;;;9.60;99.90;;;;;;4926618;29;20754;-62
2023/12/26 10:06:22;;;;;;;3.10;1.07;;;9.70;99.90;;;;;;4922608;29;20585;-62
2023/12/26 10:08:48;;;;;;;3.57;1.50;;;9.70;99.90;;;;;;4923014;29;20503;-62
2023/12/26 10:11:15;;;;;;;2.67;1.47;;;9.70;99.90;;;;;;4921436;29;20458;-63
2023/12/26 10:13:52;;;;;;;4.40;1.87;;;9.80;99.90;;;;;;4922099;29;21413;-62
2023/12/26 10:16:19;;;;;;;1.83;1.13;;;9.80;99.90;;;;;;4934148;29;20427;-62
2023/12/26 10:18:45;;;;;;;4.50;1.27;;;9.80;99.90;;;;;;4928324;29;20443;-63
2023/12/26 10:21:13;;;;;;;19.57;11.30;;;9.80;99.90;;;;;;4919703;29;20420;-63
2023/12/26 10:23:38;;;;;;;3.90;2.30;;;9.90;99.90;;;;;;4934631;29;20419;-62
2023/12/26 10:26:05;;;;;;;3.47;1.47;;;9.90;99.90;;;;;;4934490;29;20437;-61
2023/12/26 10:28:41;;;;;;;2.40;0.80;;;9.70;99.90;;;;;;4919095;29;20634;-60
2023/12/26 10:31:14;;;;;;;2.27;1.23;;;9.70;99.90;;;;;;4931993;29;20884;-61
2023/12/26 10:33:41;;;;;;;2.30;0.97;;;9.80;99.90;;;;;;4935118;29;20937;-61
2023/12/26 10:36:08;;;;;;;4.40;1.43;;;9.80;99.90;;;;;;4934237;29;20423;-61
2023/12/26 10:38:34;;;;;;;4.10;1.30;;;10.00;99.90;;;;;;4916962;29;20420;-61
2023/12/26 10:41:10;;;;;;;3.87;1.33;;;10.10;99.90;;;;;;4928825;29;20436;-62
2023/12/26 10:43:42;;;;;;;2.30;1.10;;;10.20;99.90;;;;;;4930299;29;20489;-61
2023/12/26 10:46:08;;;;;;;3.10;1.00;;;10.20;99.90;;;;;;4929944;29;21014;-61
2023/12/26 10:48:35;;;;;;;3.30;1.20;;;10.20;99.90;;;;;;4919098;29;20491;-62
2023/12/26 10:51:01;;;;;;;2.10;1.30;;;10.30;99.90;;;;;;4925232;29;20829;-62
2023/12/26 10:53:49;;;;;;;3.27;1.23;;;10.40;99.90;;;;;;4923386;29;20418;-62
2023/12/26 10:56:14;;;;;;;2.03;1.40;;;10.30;99.90;;;;;;4931084;29;20449;-64
2023/12/26 10:58:41;;;;;;;3.57;1.27;;;10.30;99.90;;;;;;4929556;29;20423;-62
2023/12/26 13:53:09;;;;;;;89.77;38.50;;;9.70;99.90;;;;;;4913457;29;20427;-63
2023/12/26 13:55:35;;;;;;;3.70;1.63;;;9.70;99.90;;;;;;4928481;29;20537;-62
2023/12/26 13:58:00;;;;;;;5.97;1.20;;;9.70;99.90;;;;;;4913500;29;20240;-63
2023/12/26 14:00:25;;;;;;;5.90;1.80;;;9.70;99.90;;;;;;4904928;29;20179;-63
2023/12/26 14:02:51;;;;;;;3.70;1.40;;;9.70;99.90;;;;;;4918662;29;20175;-63
2023/12/26 14:05:16;;;;;;;2.37;1.20;;;9.70;99.90;;;;;;4928023;29;20274;-62
2023/12/26 14:07:44;;;;;;;5.07;1.50;;;9.60;99.90;;;;;;4935500;29;20179;-62
2023/12/26 14:10:10;;;;;;;5.10;1.37;;;9.60;99.90;;;;;;4930342;29;20270;-62
2023/12/26 14:12:35;;;;;;;7.30;1.60;;;9.60;99.90;;;;;;4926257;29;20550;-62
2023/12/26 14:15:01;;;;;;;5.03;2.13;;;9.60;99.90;;;;;;4937159;29;20452;-62
2023/12/26 14:17:26;;;;;;;4.70;1.40;;;9.60;99.90;;;;;;4932730;29;20207;-62
2023/12/26 14:19:52;;;;;;;4.27;1.37;;;9.60;99.90;;;;;;4922931;29;20642;-63
2023/12/26 14:22:17;;;;;;;9.73;1.87;;;9.60;99.90;;;;;;4931761;29;20175;-62
2023/12/26 14:24:42;;;;;;;4.77;2.40;;;9.60;99.90;;;;;;4923329;29;20285;-62
2023/12/26 14:27:08;;;;;;;4.43;1.93;;;9.60;99.90;;;;;;4932524;29;20171;-63
2023/12/26 14:29:33;;;;;;;4.43;3.20;;;9.50;99.90;;;;;;4925746;29;20182;-63
2023/12/26 14:31:59;;;;;;;3.73;1.20;;;9.40;99.90;;;;;;4935898;29;20575;-62
2023/12/26 14:34:24;;;;;;;5.60;2.50;;;9.40;99.90;;;;;;4925474;29;20190;-62
2023/12/26 14:36:50;;;;;;;6.67;1.90;;;9.30;99.90;;;;;;4921280;29;20183;-65
2023/12/26 14:39:15;;;;;;;5.33;2.33;;;9.30;99.90;;;;;;4925299;29;20192;-64
2023/12/26 14:41:41;;;;;;;3.43;2.07;;;9.20;99.90;;;;;;4935430;29;20186;-62
2023/12/26 14:44:06;;;;;;;7.20;1.40;;;9.30;99.90;;;;;;4935445;29;20646;-62
2023/12/26 14:46:32;;;;;;;6.50;2.00;;;9.30;99.90;;;;;;4931301;29;20207;-62
2023/12/26 14:48:57;;;;;;;6.10;2.10;;;9.30;99.90;;;;;;4935479;29;20182;-62
2023/12/26 14:51:24;;;;;;;4.57;1.77;;;9.30;99.90;;;;;;4927649;29;20210;-62
2023/12/26 14:53:50;;;;;;;2.83;1.10;;;9.30;99.90;;;;;;4928816;29;20179;-62
2023/12/26 14:56:15;;;;;;;2.47;1.40;;;9.30;99.90;;;;;;4932277;29;20458;-63
2023/12/26 14:58:41;;;;;;;4.33;1.80;;;9.30;99.90;;;;;;4930898;29;20224;-63
2023/12/26 15:01:06;;;;;;;3.40;1.60;;;9.30;99.90;;;;;;4930095;29;20642;-63
2023/12/26 15:03:33;;;;;;;2.23;1.10;;;9.30;99.90;;;;;;4935520;29;20646;-63
2023/12/26 15:05:59;;;;;;;6.30;1.70;;;9.20;99.90;;;;;;4905706;29;20579;-63
2023/12/26 15:08:25;;;;;;;4.70;1.53;;;9.10;99.90;;;;;;4933866;29;20433;-63
2023/12/26 15:10:50;;;;;;;6.50;1.80;;;9.00;99.90;;;;;;4929196;29;20576;-62
2023/12/26 15:13:16;;;;;;;4.00;1.60;;;9.00;99.90;;;;;;4935025;29;20580;-61
2023/12/26 15:15:42;;;;;;;5.70;2.30;;;9.00;99.90;;;;;;4936307;29;20554;-60
2023/12/26 15:18:07;;;;;;;1.97;1.50;;;8.90;99.90;;;;;;4925215;29;20423;-62
2023/12/26 15:20:33;;;;;;;5.63;2.20;;;8.90;99.90;;;;;;4934630;29;20201;-65
2023/12/26 15:22:59;;;;;;;7.33;1.63;;;8.90;99.90;;;;;;4920878;29;20211;-61
2023/12/26 15:25:24;;;;;;;3.40;1.77;;;8.80;99.90;;;;;;4926440;29;20281;-61
2023/12/26 15:27:50;;;;;;;8.73;1.53;;;8.70;99.90;;;;;;4933120;29;20645;-63
2023/12/26 15:30:16;;;;;;;5.97;1.77;;;8.60;99.90;;;;;;4923325;29;20638;-66
2023/12/26 15:32:41;;;;;;;5.27;2.07;;;8.60;99.90;;;;;;4926812;29;20232;-64
2023/12/26 15:35:08;;;;;;;1.87;1.07;;;8.60;99.90;;;;;;4925215;29;20191;-63
2023/12/26 15:37:34;;;;;;;2.60;1.53;;;8.60;99.90;;;;;;4920687;29;20190;-64
2023/12/26 15:39:59;;;;;;;3.10;1.90;;;8.50;99.90;;;;;;4935984;29;20934;-65
2023/12/26 15:42:25;;;;;;;3.87;1.63;;;8.50;99.90;;;;;;4927401;29;20457;-64
2023/12/26 15:44:51;;;;;;;4.00;1.70;;;8.30;99.90;;;;;;4925410;29;20306;-62